sensor_id;sensor_type;location;lat;lon;timestamp;pressure;altitude;pressure_sealevel;temperature;humidity
706;BME280;21234;48.690;9.016;2024-03-29T00:00:41;94467.38;;;6.04;61.91
706;BME280;21234;48.690;9.016;2024-03-29T00:03:07;94458.47;;;6.04;61.83
706;BME280;21234;48.690;9.016;2024-03-29T00:05:33;94443.91;;;6.05;62.15
706;BME280;21234;48.690;9.016;2024-03-29T00:07:59;94444.72;;;6.05;62.17
706;BME280;21234;48.690;9.016;2024-03-29T00:10:26;94438.25;;;6.06;62.18
706;BME280;21234;48.690;9.016;2024-03-29T00:12:52;94429.63;;;6.04;62.04
706;BME280;21234;48.690;9.016;2024-03-29T00:15:17;94422.88;;;6.02;62.54
706;BME280;21234;48.690;9.016;2024-03-29T00:17:43;94424.75;;;5.96;62.69
706;BME280;21234;48.690;9.016;2024-03-29T00:20:09;94418.00;;;5.94;63.20
706;BME280;21234;48.690;9.016;2024-03-29T00:22:35;94415.81;;;5.91;63.18
706;BME280;21234;48.690;9.016;2024-03-29T00:25:01;94410.69;;;5.89;63.54
706;BME280;21234;48.690;9.016;2024-03-29T00:27:29;94401.22;;;5.87;63.83
706;BME280;21234;48.690;9.016;2024-03-29T00:29:54;94391.00;;;5.84;63.97
706;BME280;21234;48.690;9.016;2024-03-29T00:32:20;94384.53;;;5.85;63.97
706;BME280;21234;48.690;9.016;2024-03-29T00:34:46;94374.81;;;5.84;64.07
706;BME280;21234;48.690;9.016;2024-03-29T00:37:12;94362.13;;;5.84;64.51
706;BME280;21234;48.690;9.016;2024-03-29T00:39:38;94358.34;;;5.85;64.25
706;BME280;21234;48.690;9.016;2024-03-29T00:42:04;94347.03;;;5.88;64.32
706;BME280;21234;48.690;9.016;2024-03-29T00:44:31;94340.81;;;5.88;64.41
706;BME280;21234;48.690;9.016;2024-03-29T00:46:57;94342.47;;;5.89;64.42
706;BME280;21234;48.690;9.016;2024-03-29T00:49:22;94342.97;;;5.86;64.50
706;BME280;21234;48.690;9.016;2024-03-29T00:51:48;94348.41;;;5.91;64.88
706;BME280;21234;48.690;9.016;2024-03-29T00:54:14;94364.59;;;5.96;65.31
706;BME280;21234;48.690;9.016;2024-03-29T00:56:39;94371.63;;;5.97;64.36
706;BME280;21234;48.690;9.016;2024-03-29T00:59:05;94359.75;;;5.98;64.25
706;BME280;21234;48.690;9.016;2024-03-29T01:01:32;94363.53;;;5.97;64.73
706;BME280;21234;48.690;9.016;2024-03-29T01:03:58;94372.69;;;5.96;63.95
706;BME280;21234;48.690;9.016;2024-03-29T01:06:23;94376.19;;;5.96;64.09
706;BME280;21234;48.690;9.016;2024-03-29T01:08:49;94369.72;;;5.97;64.12
706;BME280;21234;48.690;9.016;2024-03-29T01:11:15;94355.72;;;6.00;64.07
706;BME280;21234;48.690;9.016;2024-03-29T01:13:41;94344.09;;;6.00;64.04
706;BME280;21234;48.690;9.016;2024-03-29T01:16:07;94335.22;;;5.99;63.64
706;BME280;21234;48.690;9.016;2024-03-29T01:18:34;94329.25;;;5.97;64.07
706;BME280;21234;48.690;9.016;2024-03-29T01:21:00;94338.97;;;5.98;64.37
706;BME280;21234;48.690;9.016;2024-03-29T01:23:25;94341.94;;;6.02;64.03
706;BME280;21234;48.690;9.016;2024-03-29T01:25:51;94342.75;;;6.02;65.07
706;BME280;21234;48.690;9.016;2024-03-29T01:28:17;94341.41;;;6.00;65.45
706;BME280;21234;48.690;9.016;2024-03-29T01:30:43;94327.38;;;5.98;64.36
706;BME280;21234;48.690;9.016;2024-03-29T01:33:08;94329.28;;;6.02;64.41
706;BME280;21234;48.690;9.016;2024-03-29T01:35:35;94330.34;;;6.01;63.45
706;BME280;21234;48.690;9.016;2024-03-29T01:38:01;94321.44;;;6.01;63.99
706;BME280;21234;48.690;9.016;2024-03-29T01:40:27;94321.19;;;6.02;63.18
706;BME280;21234;48.690;9.016;2024-03-29T01:42:53;94317.94;;;6.05;63.16
706;BME280;21234;48.690;9.016;2024-03-29T01:45:19;94321.47;;;6.06;62.38
706;BME280;21234;48.690;9.016;2024-03-29T01:47:46;94334.69;;;6.13;62.46
706;BME280;21234;48.690;9.016;2024-03-29T01:50:13;94336.31;;;6.14;62.62
706;BME280;21234;48.690;9.016;2024-03-29T01:52:41;94327.66;;;6.12;62.10
706;BME280;21234;48.690;9.016;2024-03-29T01:55:08;94333.59;;;6.14;61.91
706;BME280;21234;48.690;9.016;2024-03-29T01:57:35;94338.47;;;6.17;62.09
706;BME280;21234;48.690;9.016;2024-03-29T02:00:02;94336.28;;;6.19;62.49
706;BME280;21234;48.690;9.016;2024-03-29T02:02:31;94336.59;;;6.17;63.98
706;BME280;21234;48.690;9.016;2024-03-29T02:04:58;94324.44;;;6.15;64.06
706;BME280;21234;48.690;9.016;2024-03-29T02:07:25;94338.47;;;6.06;64.43
706;BME280;21234;48.690;9.016;2024-03-29T02:09:53;94338.72;;;6.05;63.72
706;BME280;21234;48.690;9.016;2024-03-29T02:12:20;94343.56;;;6.03;63.39
706;BME280;21234;48.690;9.016;2024-03-29T02:14:46;94345.19;;;6.04;63.15
706;BME280;21234;48.690;9.016;2024-03-29T02:17:13;94336.84;;;6.05;63.50
706;BME280;21234;48.690;9.016;2024-03-29T02:19:39;94343.03;;;6.06;63.83
706;BME280;21234;48.690;9.016;2024-03-29T02:22:07;94326.59;;;6.07;63.39
706;BME280;21234;48.690;9.016;2024-03-29T02:24:39;94314.19;;;6.12;64.19
706;BME280;21234;48.690;9.016;2024-03-29T02:27:06;94323.63;;;6.09;63.42
706;BME280;21234;48.690;9.016;2024-03-29T02:29:35;94320.94;;;6.09;63.54
706;BME280;21234;48.690;9.016;2024-03-29T02:32:03;94313.09;;;6.13;63.30
706;BME280;21234;48.690;9.016;2024-03-29T02:34:29;94329.56;;;6.11;63.45
706;BME280;21234;48.690;9.016;2024-03-29T02:36:56;94323.88;;;6.07;63.66
706;BME280;21234;48.690;9.016;2024-03-29T02:39:23;94312.28;;;6.02;63.53
706;BME280;21234;48.690;9.016;2024-03-29T02:41:51;94305.53;;;6.04;64.38
706;BME280;21234;48.690;9.016;2024-03-29T02:44:18;94301.50;;;6.07;64.12
706;BME280;21234;48.690;9.016;2024-03-29T02:46:44;94303.66;;;6.10;65.19
706;BME280;21234;48.690;9.016;2024-03-29T02:49:10;94313.63;;;6.10;64.72
706;BME280;21234;48.690;9.016;2024-03-29T02:51:37;94318.22;;;6.09;66.03
706;BME280;21234;48.690;9.016;2024-03-29T02:54:02;94324.44;;;6.04;68.58
706;BME280;21234;48.690;9.016;2024-03-29T02:56:29;94337.38;;;6.02;65.78
706;BME280;21234;48.690;9.016;2024-03-29T02:58:57;94332.78;;;6.03;65.47
706;BME280;21234;48.690;9.016;2024-03-29T03:01:24;94343.84;;;6.01;65.73
706;BME280;21234;48.690;9.016;2024-03-29T03:03:49;94339.00;;;6.03;66.55
706;BME280;21234;48.690;9.016;2024-03-29T03:06:16;94343.56;;;5.98;65.68
706;BME280;21234;48.690;9.016;2024-03-29T03:08:41;94332.22;;;5.96;66.08
706;BME280;21234;48.690;9.016;2024-03-29T03:11:26;94332.50;;;5.94;66.10
706;BME280;21234;48.690;9.016;2024-03-29T03:13:52;94337.63;;;5.96;65.86
706;BME280;21234;48.690;9.016;2024-03-29T03:16:20;94355.97;;;5.94;66.28
706;BME280;21234;48.690;9.016;2024-03-29T03:18:47;94351.09;;;5.91;68.06
706;BME280;21234;48.690;9.016;2024-03-29T03:21:13;94353.00;;;5.95;69.15
706;BME280;21234;48.690;9.016;2024-03-29T03:23:39;94368.38;;;5.95;67.78
706;BME280;21234;48.690;9.016;2024-03-29T03:26:06;94372.69;;;5.96;69.34
706;BME280;21234;48.690;9.016;2024-03-29T03:28:32;94400.69;;;5.80;68.76
706;BME280;21234;48.690;9.016;2024-03-29T03:30:58;94399.59;;;5.76;70.00
706;BME280;21234;48.690;9.016;2024-03-29T03:33:25;94397.13;;;5.69;68.70
706;BME280;21234;48.690;9.016;2024-03-29T03:35:52;94426.53;;;5.70;69.60
706;BME280;21234;48.690;9.016;2024-03-29T03:38:18;94424.28;;;5.47;70.94
706;BME280;21234;48.690;9.016;2024-03-29T03:40:44;94393.03;;;5.46;71.03
706;BME280;21234;48.690;9.016;2024-03-29T03:43:10;94360.91;;;5.34;71.74
706;BME280;21234;48.690;9.016;2024-03-29T03:45:37;94393.50;;;5.33;73.04
706;BME280;21234;48.690;9.016;2024-03-29T03:48:04;94343.66;;;5.35;72.23
706;BME280;21234;48.690;9.016;2024-03-29T03:50:33;94376.53;;;5.32;73.88
706;BME280;21234;48.690;9.016;2024-03-29T03:52:58;94342.53;;;5.26;74.16
706;BME280;21234;48.690;9.016;2024-03-29T03:55:25;94340.91;;;5.20;74.29
706;BME280;21234;48.690;9.016;2024-03-29T03:57:52;94316.41;;;5.22;74.19
706;BME280;21234;48.690;9.016;2024-03-29T04:00:20;94291.63;;;5.25;73.15
706;BME280;21234;48.690;9.016;2024-03-29T04:02:47;94288.16;;;5.34;72.85
706;BME280;21234;48.690;9.016;2024-03-29T04:05:14;94268.78;;;5.53;70.10
706;BME280;21234;48.690;9.016;2024-03-29T04:11:04;94245.94;;;6.01;64.25
706;BME280;21234;48.690;9.016;2024-03-29T04:13:30;94261.31;;;6.16;63.19
706;BME280;21234;48.690;9.016;2024-03-29T04:16:01;94284.22;;;6.38;60.92
706;BME280;21234;48.690;9.016;2024-03-29T04:18:27;94278.53;;;6.45;61.72
706;BME280;21234;48.690;9.016;2024-03-29T04:20:56;94300.66;;;6.47;61.84
706;BME280;21234;48.690;9.016;2024-03-29T04:23:23;94304.72;;;6.45;62.58
706;BME280;21234;48.690;9.016;2024-03-29T04:25:51;94330.34;;;6.42;62.97
706;BME280;21234;48.690;9.016;2024-03-29T04:28:19;94333.31;;;6.30;63.84
706;BME280;21234;48.690;9.016;2024-03-29T04:30:51;94343.84;;;6.32;64.53
706;BME280;21234;48.690;9.016;2024-03-29T04:33:18;94354.63;;;6.27;66.17
706;BME280;21234;48.690;9.016;2024-03-29T04:35:53;94387.53;;;6.19;65.87
706;BME280;21234;48.690;9.016;2024-03-29T04:38:20;94375.94;;;6.18;68.11
706;BME280;21234;48.690;9.016;2024-03-29T04:40:46;94362.22;;;6.15;68.66
706;BME280;21234;48.690;9.016;2024-03-29T04:43:13;94354.09;;;6.10;69.64
706;BME280;21234;48.690;9.016;2024-03-29T04:45:43;94350.84;;;5.97;72.05
706;BME280;21234;48.690;9.016;2024-03-29T04:48:09;94331.09;;;5.77;72.32
706;BME280;21234;48.690;9.016;2024-03-29T04:50:36;94339.16;;;5.66;73.94
706;BME280;21234;48.690;9.016;2024-03-29T04:53:03;94342.09;;;5.55;73.69
706;BME280;21234;48.690;9.016;2024-03-29T04:55:30;94289.81;;;5.56;75.97
706;BME280;21234;48.690;9.016;2024-03-29T04:57:56;94294.38;;;5.55;74.65
706;BME280;21234;48.690;9.016;2024-03-29T05:00:23;94298.16;;;5.54;74.43
706;BME280;21234;48.690;9.016;2024-03-29T05:02:51;94301.69;;;5.60;74.84
706;BME280;21234;48.690;9.016;2024-03-29T05:05:18;94307.63;;;5.67;70.13
706;BME280;21234;48.690;9.016;2024-03-29T05:07:44;94313.06;;;5.82;69.30
706;BME280;21234;48.690;9.016;2024-03-29T05:10:11;94316.81;;;5.81;70.48
706;BME280;21234;48.690;9.016;2024-03-29T05:12:37;94321.97;;;5.93;72.99
706;BME280;21234;48.690;9.016;2024-03-29T05:15:05;94312.28;;;5.97;72.36
706;BME280;21234;48.690;9.016;2024-03-29T05:17:32;94325.47;;;5.93;71.96
706;BME280;21234;48.690;9.016;2024-03-29T05:20:00;94318.47;;;5.97;74.17
706;BME280;21234;48.690;9.016;2024-03-29T05:22:26;94334.13;;;5.95;74.64
706;BME280;21234;48.690;9.016;2024-03-29T05:24:53;94326.03;;;5.95;72.91
706;BME280;21234;48.690;9.016;2024-03-29T05:27:20;94337.34;;;5.92;74.33
706;BME280;21234;48.690;9.016;2024-03-29T05:29:47;94326.28;;;5.94;76.03
706;BME280;21234;48.690;9.016;2024-03-29T05:32:13;94329.25;;;5.97;76.70
706;BME280;21234;48.690;9.016;2024-03-29T05:34:40;94334.13;;;5.95;77.82
706;BME280;21234;48.690;9.016;2024-03-29T05:37:08;94344.38;;;5.98;77.06
706;BME280;21234;48.690;9.016;2024-03-29T05:39:35;94349.22;;;5.91;74.35
706;BME280;21234;48.690;9.016;2024-03-29T05:42:01;94346.00;;;5.99;76.71
706;BME280;21234;48.690;9.016;2024-03-29T05:44:28;94351.66;;;6.03;74.33
706;BME280;21234;48.690;9.016;2024-03-29T05:46:55;94351.94;;;6.12;75.38
706;BME280;21234;48.690;9.016;2024-03-29T05:49:21;94349.78;;;6.19;74.37
706;BME280;21234;48.690;9.016;2024-03-29T05:51:47;94354.09;;;6.25;73.63
706;BME280;21234;48.690;9.016;2024-03-29T05:54:17;94354.09;;;6.25;75.25
706;BME280;21234;48.690;9.016;2024-03-29T05:56:43;94355.72;;;6.26;75.61
706;BME280;21234;48.690;9.016;2024-03-29T05:59:10;94358.97;;;6.33;79.02
706;BME280;21234;48.690;9.016;2024-03-29T06:01:37;94356.25;;;6.33;70.94
706;BME280;21234;48.690;9.016;2024-03-29T06:04:04;94347.09;;;6.39;72.46
706;BME280;21234;48.690;9.016;2024-03-29T06:06:38;94343.84;;;6.42;68.56
706;BME280;21234;48.690;9.016;2024-03-29T06:09:05;94329.53;;;6.52;68.97
706;BME280;21234;48.690;9.016;2024-03-29T06:11:33;94327.63;;;6.62;66.94
706;BME280;21234;48.690;9.016;2024-03-29T06:14:00;94318.44;;;6.63;65.01
706;BME280;21234;48.690;9.016;2024-03-29T06:16:44;94336.53;;;6.63;65.19
706;BME280;21234;48.690;9.016;2024-03-29T06:19:28;94340.59;;;6.60;64.31
706;BME280;21234;48.690;9.016;2024-03-29T06:21:54;94335.19;;;6.60;64.10
706;BME280;21234;48.690;9.016;2024-03-29T06:24:21;94343.00;;;6.62;64.66
706;BME280;21234;48.690;9.016;2024-03-29T06:26:49;94344.63;;;6.68;65.35
706;BME280;21234;48.690;9.016;2024-03-29T06:29:18;94355.16;;;6.74;66.66
706;BME280;21234;48.690;9.016;2024-03-29T06:31:44;94347.31;;;6.78;64.89
706;BME280;21234;48.690;9.016;2024-03-29T06:34:11;94354.03;;;6.86;65.57
706;BME280;21234;48.690;9.016;2024-03-29T06:36:38;94356.72;;;6.96;66.59
706;BME280;21234;48.690;9.016;2024-03-29T06:39:04;94339.94;;;7.09;69.89
706;BME280;21234;48.690;9.016;2024-03-29T06:41:31;94341.56;;;7.10;68.50
706;BME280;21234;48.690;9.016;2024-03-29T06:43:59;94341.56;;;7.10;69.30
706;BME280;21234;48.690;9.016;2024-03-29T06:46:26;94336.44;;;7.08;69.42
706;BME280;21234;48.690;9.016;2024-03-29T06:48:52;94325.34;;;7.10;71.26
706;BME280;21234;48.690;9.016;2024-03-29T06:51:19;94324.81;;;7.13;70.66
706;BME280;21234;48.690;9.016;2024-03-29T06:53:46;94332.09;;;7.13;70.54
706;BME280;21234;48.690;9.016;2024-03-29T06:56:12;94322.94;;;7.08;67.63
706;BME280;21234;48.690;9.016;2024-03-29T06:58:40;94329.13;;;7.14;66.49
706;BME280;21234;48.690;9.016;2024-03-29T07:01:08;94325.03;;;7.17;66.30
706;BME280;21234;48.690;9.016;2024-03-29T07:03:35;94312.31;;;7.22;64.78
706;BME280;21234;48.690;9.016;2024-03-29T07:06:02;94319.06;;;7.25;68.86
706;BME280;21234;48.690;9.016;2024-03-29T07:08:29;94322.03;;;7.28;70.40
706;BME280;21234;48.690;9.016;2024-03-29T07:10:59;94313.94;;;7.28;68.97
706;BME280;21234;48.690;9.016;2024-03-29T07:13:27;94309.34;;;7.24;70.48
706;BME280;21234;48.690;9.016;2024-03-29T07:15:54;94313.19;;;7.13;67.24
706;BME280;21234;48.690;9.016;2024-03-29T07:18:22;94323.19;;;7.12;68.64
706;BME280;21234;48.690;9.016;2024-03-29T07:20:49;94320.50;;;7.07;68.71
706;BME280;21234;48.690;9.016;2024-03-29T07:23:16;94334.84;;;7.02;66.91
706;BME280;21234;48.690;9.016;2024-03-29T07:25:44;94339.44;;;6.92;74.07
706;BME280;21234;48.690;9.016;2024-03-29T07:28:11;94334.34;;;6.80;77.15
706;BME280;21234;48.690;9.016;2024-03-29T07:30:40;94340.59;;;6.65;86.96
706;BME280;21234;48.690;9.016;2024-03-29T07:33:06;94339.81;;;6.45;90.42
706;BME280;21234;48.690;9.016;2024-03-29T07:35:36;94330.63;;;6.35;94.02
706;BME280;21234;48.690;9.016;2024-03-29T07:38:06;94334.41;;;6.19;92.49
706;BME280;21234;48.690;9.016;2024-03-29T07:40:33;94331.44;;;6.11;95.64
706;BME280;21234;48.690;9.016;2024-03-29T07:43:01;94343.03;;;6.06;98.86
706;BME280;21234;48.690;9.016;2024-03-29T07:45:28;94356.78;;;5.99;99.99
706;BME280;21234;48.690;9.016;2024-03-29T07:47:55;94381.25;;;5.88;100.00
706;BME280;21234;48.690;9.016;2024-03-29T07:50:22;94397.72;;;5.86;100.00
706;BME280;21234;48.690;9.016;2024-03-29T07:52:51;94404.72;;;5.87;96.34
706;BME280;21234;48.690;9.016;2024-03-29T07:55:18;94416.38;;;5.98;98.54
706;BME280;21234;48.690;9.016;2024-03-29T07:57:44;94423.94;;;6.01;100.00
706;BME280;21234;48.690;9.016;2024-03-29T08:00:13;94425.88;;;6.11;100.00
706;BME280;21234;48.690;9.016;2024-03-29T08:02:40;94432.59;;;6.18;99.13
706;BME280;21234;48.690;9.016;2024-03-29T08:05:07;94431.28;;;6.26;100.00
706;BME280;21234;48.690;9.016;2024-03-29T08:07:35;94432.38;;;6.35;99.53
706;BME280;21234;48.690;9.016;2024-03-29T08:10:03;94433.75;;;6.43;100.00
706;BME280;21234;48.690;9.016;2024-03-29T08:12:31;94434.28;;;6.45;100.00
706;BME280;21234;48.690;9.016;2024-03-29T08:15:00;94438.34;;;6.47;100.00
706;BME280;21234;48.690;9.016;2024-03-29T08:17:26;94448.03;;;6.53;100.00
706;BME280;21234;48.690;9.016;2024-03-29T08:19:53;94440.75;;;6.59;100.00
706;BME280;21234;48.690;9.016;2024-03-29T08:22:20;94448.84;;;6.54;100.00
706;BME280;21234;48.690;9.016;2024-03-29T08:24:47;94449.66;;;6.59;100.00
706;BME280;21234;48.690;9.016;2024-03-29T08:27:15;94453.16;;;6.60;100.00
706;BME280;21234;48.690;9.016;2024-03-29T08:29:43;94458.84;;;6.63;100.00
706;BME280;21234;48.690;9.016;2024-03-29T08:32:09;94462.91;;;6.71;100.00
706;BME280;21234;48.690;9.016;2024-03-29T08:34:36;94461.56;;;6.68;100.00
706;BME280;21234;48.690;9.016;2024-03-29T08:37:03;94456.16;;;6.73;100.00
706;BME280;21234;48.690;9.016;2024-03-29T08:39:30;94462.34;;;6.84;100.00
706;BME280;21234;48.690;9.016;2024-03-29T08:41:57;94467.47;;;6.96;100.00
706;BME280;21234;48.690;9.016;2024-03-29T08:44:25;94467.75;;;6.99;100.00
706;BME280;21234;48.690;9.016;2024-03-29T08:46:52;94463.97;;;7.00;100.00
706;BME280;21234;48.690;9.016;2024-03-29T08:49:20;94471.00;;;7.06;100.00
706;BME280;21234;48.690;9.016;2024-03-29T08:51:47;94469.66;;;7.09;100.00
706;BME280;21234;48.690;9.016;2024-03-29T08:54:13;94469.09;;;7.12;100.00
706;BME280;21234;48.690;9.016;2024-03-29T08:56:40;94462.63;;;7.13;100.00
706;BME280;21234;48.690;9.016;2024-03-29T08:59:07;94468.00;;;7.18;100.00
706;BME280;21234;48.690;9.016;2024-03-29T09:01:37;94459.06;;;7.23;100.00
706;BME280;21234;48.690;9.016;2024-03-29T09:04:04;94459.34;;;7.21;100.00
706;BME280;21234;48.690;9.016;2024-03-29T09:06:33;94449.34;;;7.27;100.00
706;BME280;21234;48.690;9.016;2024-03-29T09:09:00;94459.59;;;7.35;100.00
706;BME280;21234;48.690;9.016;2024-03-29T09:11:28;94461.75;;;7.43;100.00
706;BME280;21234;48.690;9.016;2024-03-29T09:13:54;94466.31;;;7.48;100.00
706;BME280;21234;48.690;9.016;2024-03-29T09:16:23;94463.06;;;7.51;100.00
706;BME280;21234;48.690;9.016;2024-03-29T09:18:51;94464.41;;;7.48;100.00
706;BME280;21234;48.690;9.016;2024-03-29T09:21:18;94457.97;;;7.44;100.00
706;BME280;21234;48.690;9.016;2024-03-29T09:23:45;94462.56;;;7.38;100.00
706;BME280;21234;48.690;9.016;2024-03-29T09:26:13;94475.53;;;7.41;100.00
706;BME280;21234;48.690;9.016;2024-03-29T09:28:40;94477.44;;;7.41;100.00
706;BME280;21234;48.690;9.016;2024-03-29T09:31:07;94488.78;;;7.38;100.00
706;BME280;21234;48.690;9.016;2024-03-29T09:33:34;94494.75;;;7.30;100.00
706;BME280;21234;48.690;9.016;2024-03-29T09:36:02;94464.47;;;7.28;100.00
706;BME280;21234;48.690;9.016;2024-03-29T09:38:30;94460.41;;;7.40;100.00
706;BME280;21234;48.690;9.016;2024-03-29T09:41:03;94447.69;;;7.46;100.00
706;BME280;21234;48.690;9.016;2024-03-29T09:43:32;94410.81;;;7.70;100.00
706;BME280;21234;48.690;9.016;2024-03-29T09:45:59;94405.13;;;7.77;100.00
706;BME280;21234;48.690;9.016;2024-03-29T09:48:26;94415.84;;;7.92;100.00
706;BME280;21234;48.690;9.016;2024-03-29T09:50:59;94405.47;;;8.09;100.00
706;BME280;21234;48.690;9.016;2024-03-29T09:53:27;94405.09;;;8.26;100.00
706;BME280;21234;48.690;9.016;2024-03-29T09:55:54;94414.84;;;8.32;100.00
706;BME280;21234;48.690;9.016;2024-03-29T09:58:22;94405.31;;;8.40;100.00
706;BME280;21234;48.690;9.016;2024-03-29T10:00:49;94405.16;;;8.60;100.00
706;BME280;21234;48.690;9.016;2024-03-29T10:03:16;94403.94;;;8.77;100.00
706;BME280;21234;48.690;9.016;2024-03-29T10:05:45;94406.50;;;8.92;100.00
706;BME280;21234;48.690;9.016;2024-03-29T10:08:12;94406.13;;;9.03;100.00
706;BME280;21234;48.690;9.016;2024-03-29T10:10:42;94410.31;;;9.20;100.00
706;BME280;21234;48.690;9.016;2024-03-29T10:13:09;94410.63;;;9.42;100.00
706;BME280;21234;48.690;9.016;2024-03-29T10:15:35;94403.38;;;9.80;100.00
706;BME280;21234;48.690;9.016;2024-03-29T10:18:04;94413.47;;;10.22;100.00
706;BME280;21234;48.690;9.016;2024-03-29T10:20:31;94408.88;;;10.18;100.00
706;BME280;21234;48.690;9.016;2024-03-29T10:22:58;94391.75;;;9.98;100.00
706;BME280;21234;48.690;9.016;2024-03-29T10:25:31;94376.25;;;9.80;100.00
706;BME280;21234;48.690;9.016;2024-03-29T10:28:00;94397.03;;;9.90;100.00
706;BME280;21234;48.690;9.016;2024-03-29T10:30:28;94386.03;;;10.00;100.00
706;BME280;21234;48.690;9.016;2024-03-29T10:32:55;94397.94;;;10.04;100.00
706;BME280;21234;48.690;9.016;2024-03-29T10:35:22;94399.88;;;10.22;100.00
706;BME280;21234;48.690;9.016;2024-03-29T10:37:49;94390.91;;;10.40;100.00
706;BME280;21234;48.690;9.016;2024-03-29T10:40:16;94387.91;;;10.61;100.00
706;BME280;21234;48.690;9.016;2024-03-29T10:42:45;94395.56;;;10.72;100.00
706;BME280;21234;48.690;9.016;2024-03-29T10:45:15;94383.97;;;10.86;100.00
706;BME280;21234;48.690;9.016;2024-03-29T10:47:43;94387.53;;;11.00;100.00
706;BME280;21234;48.690;9.016;2024-03-29T10:50:12;94397.81;;;11.03;100.00
706;BME280;21234;48.690;9.016;2024-03-29T10:52:39;94400.25;;;11.18;99.87
706;BME280;21234;48.690;9.016;2024-03-29T10:55:08;94415.97;;;11.21;99.43
706;BME280;21234;48.690;9.016;2024-03-29T10:57:39;94409.16;;;11.37;98.72
706;BME280;21234;48.690;9.016;2024-03-29T11:00:08;94417.81;;;11.39;97.65
706;BME280;21234;48.690;9.016;2024-03-29T11:02:49;94415.22;;;11.34;97.90
706;BME280;21234;48.690;9.016;2024-03-29T11:05:17;94386.28;;;11.38;99.22
706;BME280;21234;48.690;9.016;2024-03-29T11:07:45;94396.84;;;11.40;97.28
706;BME280;21234;48.690;9.016;2024-03-29T11:10:15;94402.41;;;11.49;98.47
706;BME280;21234;48.690;9.016;2024-03-29T11:12:50;94407.75;;;11.54;95.64
706;BME280;21234;48.690;9.016;2024-03-29T11:15:28;94419.97;;;11.70;95.69
706;BME280;21234;48.690;9.016;2024-03-29T11:17:56;94405.59;;;11.83;100.00
706;BME280;21234;48.690;9.016;2024-03-29T11:20:25;94400.72;;;12.07;100.00
706;BME280;21234;48.690;9.016;2024-03-29T11:23:03;94399.28;;;12.24;95.13
706;BME280;21234;48.690;9.016;2024-03-29T11:25:41;94395.25;;;12.21;92.54
706;BME280;21234;48.690;9.016;2024-03-29T11:28:09;94378.44;;;12.41;92.53
706;BME280;21234;48.690;9.016;2024-03-29T11:30:45;94371.34;;;12.32;88.31
706;BME280;21234;48.690;9.016;2024-03-29T11:33:27;94370.22;;;12.33;90.27
706;BME280;21234;48.690;9.016;2024-03-29T11:35:55;94370.59;;;12.40;90.39
706;BME280;21234;48.690;9.016;2024-03-29T11:38:21;94374.38;;;12.53;92.91
706;BME280;21234;48.690;9.016;2024-03-29T11:41:00;94384.81;;;12.37;89.49
706;BME280;21234;48.690;9.016;2024-03-29T11:43:28;94396.56;;;12.24;83.05
706;BME280;21234;48.690;9.016;2024-03-29T11:45:58;94406.16;;;12.21;85.45
706;BME280;21234;48.690;9.016;2024-03-29T11:48:28;94401.97;;;12.01;79.21
706;BME280;21234;48.690;9.016;2024-03-29T11:50:55;94410.31;;;12.05;83.30
706;BME280;21234;48.690;9.016;2024-03-29T11:53:22;94416.56;;;12.05;83.10
706;BME280;21234;48.690;9.016;2024-03-29T11:55:48;94426.53;;;12.10;81.40
706;BME280;21234;48.690;9.016;2024-03-29T11:58:19;94427.53;;;12.14;81.57
706;BME280;21234;48.690;9.016;2024-03-29T12:00:46;94424.13;;;12.08;77.27
706;BME280;21234;48.690;9.016;2024-03-29T12:03:14;94424.53;;;12.16;80.99
706;BME280;21234;48.690;9.016;2024-03-29T12:05:43;94428.34;;;12.15;77.50
706;BME280;21234;48.690;9.016;2024-03-29T12:08:09;94422.69;;;12.25;76.54
706;BME280;21234;48.690;9.016;2024-03-29T12:10:37;94419.72;;;12.35;76.85
706;BME280;21234;48.690;9.016;2024-03-29T12:13:04;94402.06;;;12.46;75.86
706;BME280;21234;48.690;9.016;2024-03-29T12:15:31;94410.50;;;12.58;76.11
706;BME280;21234;48.690;9.016;2024-03-29T12:17:59;94408.22;;;12.74;77.30
706;BME280;21234;48.690;9.016;2024-03-29T12:20:28;94412.44;;;12.80;75.63
706;BME280;21234;48.690;9.016;2024-03-29T12:22:58;94408.00;;;12.84;73.45
706;BME280;21234;48.690;9.016;2024-03-29T12:25:25;94414.75;;;12.87;70.59
706;BME280;21234;48.690;9.016;2024-03-29T12:27:52;94410.69;;;12.98;73.96
706;BME280;21234;48.690;9.016;2024-03-29T12:30:19;94413.31;;;13.11;82.57
706;BME280;21234;48.690;9.016;2024-03-29T12:32:46;94423.84;;;13.18;78.98
706;BME280;21234;48.690;9.016;2024-03-29T12:35:14;94419.97;;;13.19;71.93
706;BME280;21234;48.690;9.016;2024-03-29T12:37:48;94392.28;;;13.34;74.17
706;BME280;21234;48.690;9.016;2024-03-29T12:40:17;94396.78;;;13.61;68.02
706;BME280;21234;48.690;9.016;2024-03-29T12:42:48;94419.59;;;13.96;68.05
706;BME280;21234;48.690;9.016;2024-03-29T12:45:15;94430.19;;;14.06;65.30
706;BME280;21234;48.690;9.016;2024-03-29T12:47:43;94428.25;;;13.98;67.50
706;BME280;21234;48.690;9.016;2024-03-29T12:50:13;94416.69;;;13.93;70.23
706;BME280;21234;48.690;9.016;2024-03-29T12:52:42;94424.59;;;13.72;64.92
706;BME280;21234;48.690;9.016;2024-03-29T12:55:08;94410.63;;;13.73;65.74
706;BME280;21234;48.690;9.016;2024-03-29T12:57:37;94404.44;;;13.90;70.12
706;BME280;21234;48.690;9.016;2024-03-29T13:00:07;94402.38;;;14.04;70.23
706;BME280;21234;48.690;9.016;2024-03-29T13:02:35;94396.03;;;14.35;70.09
706;BME280;21234;48.690;9.016;2024-03-29T13:05:03;94397.06;;;14.82;65.18
706;BME280;21234;48.690;9.016;2024-03-29T13:07:30;94405.88;;;15.31;64.05
706;BME280;21234;48.690;9.016;2024-03-29T13:09:57;94398.13;;;15.50;59.96
706;BME280;21234;48.690;9.016;2024-03-29T13:12:28;94382.66;;;15.54;58.00
706;BME280;21234;48.690;9.016;2024-03-29T13:14:56;94399.53;;;15.65;53.93
706;BME280;21234;48.690;9.016;2024-03-29T13:17:23;94413.22;;;16.11;55.91
706;BME280;21234;48.690;9.016;2024-03-29T13:19:49;94400.19;;;16.38;58.70
706;BME280;21234;48.690;9.016;2024-03-29T13:22:16;94391.19;;;16.29;53.64
706;BME280;21234;48.690;9.016;2024-03-29T13:24:44;94393.94;;;16.29;54.10
706;BME280;21234;48.690;9.016;2024-03-29T13:27:10;94392.03;;;16.50;55.71
706;BME280;21234;48.690;9.016;2024-03-29T13:29:38;94396.03;;;16.82;52.69
706;BME280;21234;48.690;9.016;2024-03-29T13:32:06;94396.50;;;17.38;54.91